createdAt,value
2022-07-29T00:03:25.501Z,8.43
2022-07-29T00:07:27.563Z,9.10
2022-07-29T00:11:29.450Z,8.88
2022-07-29T00:15:31.229Z,9.23
2022-07-29T00:19:32.994Z,9.00
2022-07-29T00:23:36.806Z,8.82
2022-07-29T00:27:38.876Z,7.53
2022-07-29T00:31:40.663Z,8.05
2022-07-29T00:35:45.386Z,8.73
2022-07-29T00:39:47.136Z,8.07
2022-07-29T00:43:48.921Z,8.45
2022-07-29T00:47:50.698Z,7.80
2022-07-29T00:51:52.602Z,7.10
2022-07-29T00:55:56.108Z,6.57
2022-07-29T00:59:58.061Z,6.47
2022-07-29T01:04:00.060Z,6.00
2022-07-29T01:08:02.562Z,6.82
2022-07-29T01:12:05.846Z,6.88
2022-07-29T01:16:24.383Z,6.40
2022-07-29T01:21:03.732Z,6.57
2022-07-29T01:25:42.928Z,6.60
2022-07-29T01:30:00.891Z,7.30
2022-07-29T01:34:06.349Z,6.40
2022-07-29T01:38:18.562Z,5.80
2022-07-29T01:42:30.493Z,6.15
2022-07-29T01:46:36.549Z,6.75
2022-07-29T01:50:47.359Z,6.32
2022-07-29T01:54:57.850Z,6.25
2022-07-29T01:59:01.942Z,6.28
2022-07-29T02:03:09.856Z,6.68
2022-07-29T02:07:16.660Z,7.03
2022-07-29T02:11:18.768Z,6.93
2022-07-29T02:15:21.187Z,7.03
2022-07-29T02:19:26.707Z,7.15
2022-07-29T02:23:29.234Z,6.28
2022-07-29T02:27:34.573Z,7.50
2022-07-29T02:31:38.150Z,7.03
2022-07-29T02:35:43.237Z,7.40
2022-07-29T02:39:48.819Z,8.95
2022-07-29T02:43:55.945Z,8.10
2022-07-29T02:48:00.661Z,7.90
2022-07-29T02:52:22.855Z,7.97
2022-07-29T02:56:35.958Z,7.40
2022-07-29T03:00:40.689Z,8.68
2022-07-29T03:04:44.560Z,8.27
2022-07-29T03:08:47.242Z,8.32
2022-07-29T03:12:49.628Z,7.97
2022-07-29T03:16:52.669Z,7.30
2022-07-29T03:20:54.843Z,7.10
2022-07-29T03:24:56.847Z,8.32
2022-07-29T03:28:58.564Z,8.15
2022-07-29T03:33:01.916Z,7.88
2022-07-29T03:37:04.512Z,7.80
2022-07-29T03:41:12.545Z,8.00
2022-07-29T03:45:18.948Z,7.97
2022-07-29T03:49:22.646Z,8.07
2022-07-29T03:53:24.671Z,8.25
2022-07-29T03:57:28.920Z,7.25
2022-07-29T04:01:33.273Z,7.65
2022-07-29T04:05:35.136Z,7.28
2022-07-29T04:09:36.862Z,7.63
2022-07-29T04:13:38.674Z,8.10
2022-07-29T04:17:41.673Z,7.03
2022-07-29T04:21:44.695Z,8.23
2022-07-29T04:25:46.621Z,7.25
2022-07-29T04:29:56.354Z,7.18
2022-07-29T04:33:58.933Z,6.22
2022-07-29T04:38:00.645Z,5.93
2022-07-29T04:42:02.406Z,6.50
2022-07-29T04:46:06.976Z,8.52
2022-07-29T04:50:10.039Z,9.15
2022-07-29T04:54:11.841Z,10.40
2022-07-29T04:58:13.674Z,9.85
2022-07-29T05:02:15.487Z,9.60
2022-07-29T05:06:17.288Z,9.02
2022-07-29T05:10:19.113Z,8.98
2022-07-29T05:14:21.134Z,8.13
2022-07-29T05:18:26.028Z,8.38
2022-07-29T05:22:28.248Z,6.95
2022-07-29T05:26:29.996Z,6.82
2022-07-29T05:30:31.826Z,7.38
2022-07-29T05:34:36.000Z,7.78
2022-07-29T05:38:38.071Z,7.07
2022-07-29T05:42:39.901Z,10.32
2022-07-29T05:46:41.911Z,21.75
2022-07-29T05:50:44.494Z,25.65
2022-07-29T05:54:47.494Z,21.67
2022-07-29T05:58:49.244Z,22.67
2022-07-29T06:02:51.027Z,24.05
2022-07-29T06:06:52.826Z,21.48
2022-07-29T06:10:54.617Z,22.23
2022-07-29T06:14:56.355Z,21.67
2022-07-29T06:18:59.558Z,18.20
2022-07-29T06:23:01.740Z,18.30
2022-07-29T06:27:03.578Z,19.83
2022-07-29T06:31:06.625Z,19.08
2022-07-29T06:35:39.298Z,20.15
2022-07-29T06:39:36.475Z,20.10
2022-07-29T06:43:51.918Z,18.30
2022-07-29T06:47:54.605Z,15.82
2022-07-29T06:51:56.847Z,17.38
2022-07-29T06:56:00.233Z,15.02
2022-07-29T07:00:02.393Z,13.60
2022-07-29T07:04:04.352Z,14.85
2022-07-29T07:08:06.538Z,13.98
2022-07-29T07:12:08.721Z,13.98
2022-07-29T07:16:10.564Z,13.23
2022-07-29T07:20:13.292Z,12.82
2022-07-29T07:24:15.566Z,14.27
2022-07-29T07:28:17.592Z,12.93
2022-07-29T07:32:19.496Z,13.27
2022-07-29T07:36:21.432Z,11.98
2022-07-29T07:40:23.374Z,11.90
2022-07-29T07:44:25.088Z,11.77
2022-07-29T07:52:51.969Z,11.10
2022-07-29T07:56:53.787Z,11.60
2022-07-29T08:00:55.644Z,12.43
2022-07-29T08:04:57.457Z,12.30
2022-07-29T08:09:19.546Z,10.80
2022-07-29T08:13:22.682Z,10.18
2022-07-29T08:17:24.510Z,10.32
2022-07-29T08:21:26.841Z,9.48
2022-07-29T08:25:28.870Z,10.02
2022-07-29T08:29:30.612Z,8.27
2022-07-29T08:33:33.250Z,8.23
2022-07-29T08:37:35.014Z,8.45
2022-07-29T08:41:36.872Z,7.35
2022-07-29T08:45:48.481Z,7.95
2022-07-29T08:49:51.214Z,7.97
2022-07-29T08:53:53.961Z,8.43
2022-07-29T08:57:57.516Z,8.77
2022-07-29T09:02:01.289Z,8.00
2022-07-29T09:06:04.625Z,6.93
2022-07-29T09:10:07.189Z,6.68
2022-07-29T09:14:11.839Z,7.60
2022-07-29T09:18:30.252Z,7.88
2022-07-29T09:22:36.676Z,8.43
2022-07-29T09:26:43.054Z,8.40
2022-07-29T09:30:57.594Z,6.72
2022-07-29T09:35:22.816Z,7.97
2022-07-29T09:39:33.227Z,6.68
2022-07-29T09:43:35.391Z,8.15
2022-07-29T09:47:46.624Z,8.57
2022-07-29T09:51:48.729Z,7.00
2022-07-29T09:55:52.066Z,6.70
2022-07-29T10:00:04.442Z,8.65
2022-07-29T10:04:06.400Z,8.25
2022-07-29T10:08:09.100Z,7.15
2022-07-29T10:12:16.540Z,7.35
2022-07-29T10:16:19.035Z,7.10
2022-07-29T10:20:23.040Z,7.28
2022-07-29T10:24:30.207Z,8.20
2022-07-29T10:28:33.452Z,7.90
2022-07-29T10:32:56.852Z,7.03
2022-07-29T10:37:19.477Z,6.45
2022-07-29T10:41:28.997Z,7.63
2022-07-29T10:45:34.570Z,11.25
2022-07-29T10:49:36.390Z,11.63
2022-07-29T10:53:54.119Z,12.73
2022-07-29T10:58:19.537Z,11.90
2022-07-29T11:02:43.951Z,15.00
2022-07-29T11:07:04.012Z,13.35
2022-07-29T11:11:22.285Z,16.13
2022-07-29T11:15:25.216Z,12.40
2022-07-29T11:19:31.016Z,10.80
2022-07-29T11:23:42.802Z,7.05
2022-07-29T11:27:46.066Z,4.65
2022-07-29T11:31:55.740Z,3.90
2022-07-29T11:36:16.820Z,4.30
2022-07-29T11:40:20.268Z,5.63
2022-07-29T11:45:08.836Z,4.80
2022-07-29T11:49:32.394Z,5.35
2022-07-29T11:53:36.828Z,5.78
2022-07-29T11:57:39.086Z,4.53
2022-07-29T12:02:18.039Z,4.45
2022-07-29T12:06:18.209Z,4.18
2022-07-29T12:10:30.006Z,4.60
2022-07-29T12:14:34.433Z,6.50
2022-07-29T12:18:36.469Z,4.03
2022-07-29T12:22:41.976Z,4.80
2022-07-29T12:26:59.414Z,4.22
2022-07-29T12:31:02.113Z,4.50
2022-07-29T12:35:14.276Z,5.82
2022-07-29T12:39:19.711Z,3.90
2022-07-29T12:43:26.285Z,4.25
2022-07-29T12:47:28.718Z,4.22
2022-07-29T12:51:35.782Z,4.13
2022-07-29T12:55:57.112Z,4.28
2022-07-29T13:00:10.988Z,4.72
2022-07-29T13:04:26.876Z,4.82
2022-07-29T13:08:29.804Z,4.50
2022-07-29T13:12:31.820Z,4.97
2022-07-29T13:16:33.789Z,5.40
2022-07-29T13:20:36.122Z,5.13
2022-07-29T13:24:50.444Z,5.60
2022-07-29T13:28:52.214Z,4.80
2022-07-29T13:32:54.139Z,4.95
2022-07-29T13:36:56.133Z,4.82
2022-07-29T13:40:58.111Z,5.32
2022-07-29T13:45:01.057Z,5.63
2022-07-29T13:49:03.100Z,6.32
2022-07-29T13:53:04.982Z,6.40
2022-07-29T13:57:07.002Z,7.00
2022-07-29T14:01:09.970Z,6.88
2022-07-29T14:05:11.975Z,7.20
2022-07-29T14:09:13.858Z,7.65
2022-07-29T14:13:25.260Z,7.55
2022-07-29T14:17:28.318Z,7.60
2022-07-29T14:21:30.218Z,6.72
2022-07-29T14:25:34.385Z,6.40
2022-07-29T14:29:37.127Z,6.38
2022-07-29T14:33:40.568Z,6.90
2022-07-29T14:37:42.475Z,6.90
2022-07-29T14:41:44.569Z,6.20
2022-07-29T14:45:46.665Z,6.85
2022-07-29T14:49:48.598Z,6.90
2022-07-29T14:53:50.652Z,6.95
2022-07-29T14:57:57.957Z,7.38
2022-07-29T15:02:05.160Z,7.43
2022-07-29T15:06:07.360Z,8.80
2022-07-29T15:10:10.619Z,8.57
2022-07-29T15:14:16.877Z,7.93
2022-07-29T15:18:25.717Z,8.18
2022-07-29T15:22:27.831Z,8.90
2022-07-29T15:26:29.634Z,9.05
2022-07-29T15:30:34.706Z,8.95
2022-07-29T15:34:37.625Z,7.93
2022-07-29T15:38:41.993Z,8.98
2022-07-29T15:42:43.852Z,7.50
2022-07-29T15:47:05.609Z,8.77
2022-07-29T15:51:07.732Z,8.82
2022-07-29T15:55:09.866Z,9.25
2022-07-29T15:59:11.885Z,9.32
2022-07-29T16:03:24.757Z,15.70
2022-07-29T16:07:32.546Z,11.90
2022-07-29T16:11:34.808Z,13.15
2022-07-29T16:15:36.808Z,13.32
2022-07-29T16:19:38.891Z,11.50
2022-07-29T16:23:41.062Z,8.82
2022-07-29T16:27:44.135Z,7.50
2022-07-29T16:31:46.303Z,6.22
2022-07-29T16:35:48.723Z,7.32
2022-07-29T16:39:50.911Z,7.72
2022-07-29T16:43:53.107Z,6.82
2022-07-29T16:48:00.138Z,5.90
2022-07-29T16:52:02.425Z,5.80
2022-07-29T16:56:04.462Z,5.75
2022-07-29T17:00:10.889Z,6.07
2022-07-29T17:04:14.973Z,5.85
2022-07-29T17:08:20.250Z,6.85
2022-07-29T17:12:22.101Z,6.78
2022-07-29T17:16:27.136Z,6.40
2022-07-29T17:20:33.124Z,6.13
2022-07-29T17:24:35.105Z,6.57
2022-07-29T17:28:37.682Z,5.80
2022-07-29T17:32:40.014Z,5.93
2022-07-29T17:36:41.756Z,7.57
2022-07-29T17:40:43.638Z,8.02
2022-07-29T17:44:45.613Z,8.77
2022-07-29T17:48:47.470Z,7.13
2022-07-29T17:52:49.202Z,8.02
2022-07-29T17:56:51.046Z,5.80
2022-07-29T18:00:53.248Z,6.18
2022-07-29T18:04:55.017Z,6.47
2022-07-29T18:08:56.879Z,5.72
2022-07-29T18:13:00.139Z,5.72
2022-07-29T18:17:02.286Z,6.63
2022-07-29T18:21:05.751Z,6.20
2022-07-29T18:25:08.242Z,6.68
2022-07-29T18:29:10.507Z,6.72
2022-07-29T18:33:21.608Z,6.55
2022-07-29T18:38:00.311Z,7.60
2022-07-29T18:41:49.942Z,7.25
2022-07-29T18:45:52.356Z,7.28
2022-07-29T18:49:54.534Z,7.50
2022-07-29T18:53:56.605Z,7.38
2022-07-29T18:57:58.523Z,7.43
2022-07-29T19:02:00.536Z,8.13
2022-07-29T19:06:02.474Z,8.38
2022-07-29T19:10:05.403Z,8.02
2022-07-29T19:14:07.537Z,7.93
2022-07-29T19:18:09.507Z,7.55
2022-07-29T19:22:13.083Z,7.97
2022-07-29T19:26:20.702Z,9.38
2022-07-29T19:30:24.147Z,9.27
2022-07-29T19:34:27.132Z,10.13
2022-07-29T19:38:30.541Z,9.57
2022-07-29T19:42:32.518Z,11.73
2022-07-29T19:46:34.518Z,9.68
2022-07-29T19:50:36.928Z,8.75
2022-07-29T19:54:38.774Z,8.63
2022-07-29T19:58:40.783Z,8.43
2022-07-29T20:02:43.464Z,6.95
2022-07-29T20:06:45.339Z,5.70
2022-07-29T20:10:47.397Z,5.30
2022-07-29T20:14:50.543Z,5.25
2022-07-29T20:18:52.426Z,5.80
2022-07-29T20:22:54.479Z,6.00
2022-07-29T20:26:56.534Z,5.55
2022-07-29T20:30:58.503Z,5.60
2022-07-29T20:35:00.669Z,6.68
2022-07-29T20:39:02.606Z,7.60
2022-07-29T20:43:05.907Z,8.25
2022-07-29T20:47:08.196Z,9.43
2022-07-29T20:51:10.256Z,9.48
2022-07-29T20:55:12.069Z,10.27
2022-07-29T20:59:13.958Z,11.43
2022-07-29T21:03:17.500Z,11.68
2022-07-29T21:07:19.388Z,12.02
2022-07-29T21:11:43.474Z,9.63
2022-07-29T21:15:46.159Z,9.25
2022-07-29T21:19:48.014Z,12.32
2022-07-29T21:23:49.725Z,10.25
2022-07-29T21:28:10.605Z,12.55
2022-07-29T21:32:12.419Z,12.50
2022-07-29T21:36:46.753Z,10.93
2022-07-29T21:40:37.806Z,9.23
2022-07-29T21:44:41.108Z,10.05
2022-07-29T21:48:44.662Z,10.05
2022-07-29T21:52:46.684Z,11.00
2022-07-29T21:56:51.154Z,11.15
2022-07-29T22:00:53.808Z,11.70
2022-07-29T22:04:55.743Z,12.50
2022-07-29T22:08:57.447Z,12.00
2022-07-29T22:13:00.832Z,11.52
2022-07-29T22:17:03.165Z,12.20
2022-07-29T22:21:05.241Z,11.23
2022-07-29T22:25:08.407Z,10.90
2022-07-29T22:29:11.654Z,11.30
2022-07-29T22:33:17.824Z,11.07
2022-07-29T22:37:19.953Z,12.77
2022-07-29T22:41:24.733Z,11.80
2022-07-29T22:45:26.466Z,11.98
2022-07-29T22:49:28.201Z,12.23
2022-07-29T22:53:29.952Z,12.00
2022-07-29T22:57:31.857Z,12.43
2022-07-29T23:01:37.112Z,12.30
2022-07-29T23:05:39.762Z,12.43
2022-07-29T23:09:41.635Z,12.38
2022-07-29T23:13:43.427Z,11.20
2022-07-29T23:17:45.155Z,13.43
2022-07-29T23:21:46.893Z,12.32
2022-07-29T23:25:48.718Z,12.38
2022-07-29T23:29:51.449Z,12.05
2022-07-29T23:33:53.149Z,10.30
2022-07-29T23:37:54.907Z,10.93
2022-07-29T23:42:08.801Z,10.00
2022-07-29T23:46:10.683Z,9.60
2022-07-29T23:50:13.817Z,9.38
2022-07-29T23:54:15.598Z,8.43
2022-07-29T23:58:17.348Z,9.48
